createdAt,value
2023-01-20T00:00:26.309Z,23.03
2023-01-20T00:02:55.665Z,21.17
2023-01-20T00:05:25.101Z,22.27
2023-01-20T00:07:54.340Z,20.20
2023-01-20T00:10:23.675Z,21.50
2023-01-20T00:12:52.852Z,19.97
2023-01-20T00:15:23.592Z,22.20
2023-01-20T00:17:52.856Z,22.10
2023-01-20T00:20:22.032Z,23.47
2023-01-20T00:22:51.672Z,23.83
2023-01-20T00:25:20.992Z,24.97
2023-01-20T00:27:50.277Z,23.87
2023-01-20T00:30:19.869Z,23.03
2023-01-20T00:32:50.749Z,24.20
2023-01-20T00:35:20.227Z,23.03
2023-01-20T00:37:49.516Z,24.33
2023-01-20T00:40:18.963Z,24.93
2023-01-20T00:42:48.212Z,23.93
2023-01-20T00:45:17.635Z,22.67
2023-01-20T00:47:47.192Z,23.10
2023-01-20T00:50:18.369Z,23.17
2023-01-20T00:52:47.747Z,22.43
2023-01-20T00:55:17.088Z,22.63
2023-01-20T00:57:46.459Z,23.73
2023-01-20T01:00:16.624Z,22.40
2023-01-20T01:02:45.863Z,22.67
2023-01-20T01:05:16.752Z,23.83
2023-01-20T01:07:46.000Z,20.03
2023-01-20T01:10:15.265Z,22.03
2023-01-20T01:12:44.502Z,21.17
2023-01-20T01:15:14.211Z,21.57
2023-01-20T01:17:45.217Z,20.90
2023-01-20T01:20:15.106Z,19.57
2023-01-20T01:22:45.843Z,22.00
2023-01-20T01:25:15.269Z,20.33
2023-01-20T01:27:44.709Z,21.23
2023-01-20T01:30:14.487Z,19.87
2023-01-20T01:32:43.971Z,20.07
2023-01-20T01:35:13.680Z,19.40
2023-01-20T01:37:44.523Z,18.97
2023-01-20T01:40:14.248Z,19.27
2023-01-20T01:42:43.539Z,19.53
2023-01-20T01:45:31.139Z,20.40
2023-01-20T01:48:06.794Z,18.73
2023-01-20T01:50:41.675Z,19.03
2023-01-20T01:53:13.972Z,18.77
2023-01-20T01:55:46.629Z,17.93
2023-01-20T01:58:19.017Z,18.47
2023-01-20T02:00:49.206Z,16.40
2023-01-20T02:03:18.731Z,17.60
2023-01-20T02:05:50.937Z,17.20
2023-01-20T02:08:22.060Z,17.20
2023-01-20T02:10:51.415Z,17.77
2023-01-20T02:13:20.728Z,17.43
2023-01-20T02:15:57.413Z,19.67
2023-01-20T02:18:42.285Z,39.40
2023-01-20T02:21:42.997Z,22.00
2023-01-20T02:24:49.012Z,20.23
2023-01-20T02:27:24.285Z,19.23
2023-01-20T02:30:13.570Z,19.77
2023-01-20T02:32:52.387Z,20.53
2023-01-20T02:35:28.309Z,20.83
2023-01-20T02:38:09.329Z,22.37
2023-01-20T02:40:53.486Z,20.13
2023-01-20T02:43:31.633Z,20.47
2023-01-20T02:46:06.100Z,20.83
2023-01-20T02:48:44.495Z,20.87
2023-01-20T02:51:19.527Z,19.90
2023-01-20T02:53:51.851Z,22.57
2023-01-20T02:56:26.369Z,21.90
2023-01-20T02:59:00.158Z,22.70
2023-01-20T03:01:33.805Z,20.50
2023-01-20T03:04:06.920Z,20.50
2023-01-20T03:06:40.292Z,21.40
2023-01-20T03:09:12.760Z,20.60
2023-01-20T03:11:48.812Z,21.50
2023-01-20T03:14:18.960Z,21.17
2023-01-20T03:16:50.589Z,22.13
2023-01-20T03:19:21.987Z,20.90
2023-01-20T03:21:51.231Z,20.63
2023-01-20T03:24:20.649Z,21.20
2023-01-20T03:26:49.968Z,20.80
2023-01-20T03:29:19.177Z,20.23
2023-01-20T03:31:51.907Z,19.80
2023-01-20T03:34:26.170Z,20.60
2023-01-20T03:36:57.148Z,19.20
2023-01-20T03:39:27.506Z,21.33
2023-01-20T03:42:08.558Z,20.63
2023-01-20T03:44:51.818Z,21.57
2023-01-20T03:47:30.489Z,21.83
2023-01-20T03:50:10.593Z,20.83
2023-01-20T03:52:48.305Z,22.30
2023-01-20T03:55:24.629Z,24.47
2023-01-20T03:57:58.853Z,22.97
2023-01-20T04:00:30.040Z,24.47
2023-01-20T04:03:02.264Z,23.97
2023-01-20T04:05:33.896Z,24.20
2023-01-20T04:08:07.810Z,24.87
2023-01-20T04:10:39.485Z,24.90
2023-01-20T04:13:08.841Z,23.43
2023-01-20T04:15:45.491Z,22.53
2023-01-20T04:18:16.702Z,22.97
2023-01-20T04:20:49.921Z,22.90
2023-01-20T04:23:24.808Z,22.10
2023-01-20T04:25:54.114Z,20.70
2023-01-20T04:28:23.352Z,23.07
2023-01-20T04:30:52.878Z,23.40
2023-01-20T04:33:22.098Z,21.60
2023-01-20T04:35:52.832Z,22.37
2023-01-20T04:38:22.081Z,21.80
2023-01-20T04:40:51.378Z,23.10
2023-01-20T04:43:20.598Z,23.43
2023-01-20T04:45:49.804Z,21.27
2023-01-20T04:48:19.108Z,21.20
2023-01-20T04:50:48.298Z,21.47
2023-01-20T04:53:19.498Z,23.43
2023-01-20T04:55:48.734Z,22.57
2023-01-20T04:58:17.951Z,22.03
2023-01-20T05:00:47.179Z,22.03
2023-01-20T05:03:16.458Z,22.23
2023-01-20T05:05:45.617Z,21.87
2023-01-20T05:08:14.897Z,20.47
2023-01-20T05:10:45.672Z,21.40
2023-01-20T05:13:14.991Z,21.77
2023-01-20T05:15:45.479Z,21.17
2023-01-20T05:18:14.687Z,21.30
2023-01-20T05:20:46.672Z,20.57
2023-01-20T05:23:16.310Z,20.67
2023-01-20T05:25:52.052Z,21.87
2023-01-20T05:28:21.571Z,22.70
2023-01-20T05:30:52.439Z,21.60
2023-01-20T05:33:21.823Z,22.20
2023-01-20T05:35:51.114Z,20.03
2023-01-20T05:38:20.366Z,18.97
2023-01-20T05:40:51.348Z,19.47
2023-01-20T05:43:20.528Z,19.80
2023-01-20T05:45:49.716Z,17.70
2023-01-20T05:48:19.103Z,18.40
2023-01-20T05:50:48.271Z,18.20
2023-01-20T05:53:17.572Z,18.20
2023-01-20T05:55:47.439Z,18.47
2023-01-20T05:58:18.064Z,19.60
2023-01-20T06:00:47.314Z,19.00
2023-01-20T06:03:16.617Z,19.80
2023-01-20T06:05:45.871Z,19.57
2023-01-20T06:08:15.169Z,19.83
2023-01-20T06:10:44.372Z,19.40
2023-01-20T06:13:13.989Z,20.27
2023-01-20T06:15:44.923Z,18.53
2023-01-20T06:18:14.233Z,19.27
2023-01-20T06:20:43.482Z,18.93
2023-01-20T06:23:12.804Z,18.20
2023-01-20T06:25:42.364Z,20.17
2023-01-20T06:28:11.803Z,20.43
2023-01-20T06:30:43.469Z,19.93
2023-01-20T06:33:14.212Z,21.20
2023-01-20T06:35:43.668Z,21.23
2023-01-20T06:38:13.397Z,21.90
2023-01-20T06:40:42.675Z,21.13
2023-01-20T06:43:12.053Z,20.43
2023-01-20T06:45:41.410Z,21.17
2023-01-20T06:48:10.829Z,20.10
2023-01-20T06:50:41.641Z,21.30
2023-01-20T06:53:11.918Z,21.77
2023-01-20T06:55:41.300Z,21.53
2023-01-20T06:58:10.724Z,21.17
2023-01-20T07:00:40.046Z,20.63
2023-01-20T07:03:11.536Z,20.30
2023-01-20T07:05:43.117Z,20.77
2023-01-20T07:08:13.007Z,22.57
2023-01-20T07:10:42.407Z,22.50
2023-01-20T07:13:11.747Z,23.77
2023-01-20T07:15:40.937Z,25.23
2023-01-20T07:18:10.584Z,23.57
2023-01-20T07:20:40.463Z,24.53
2023-01-20T07:23:11.421Z,24.40
2023-01-20T07:25:40.613Z,23.47
2023-01-20T07:28:09.983Z,24.40
2023-01-20T07:30:39.202Z,24.07
2023-01-20T07:33:08.522Z,23.80
2023-01-20T07:35:37.939Z,23.17
2023-01-20T07:38:07.325Z,23.13
2023-01-20T07:40:38.133Z,23.57
2023-01-20T07:43:07.554Z,21.37
2023-01-20T07:45:37.096Z,22.57
2023-01-20T07:48:08.110Z,22.40
2023-01-20T07:50:37.953Z,21.77
2023-01-20T07:53:07.173Z,21.57
2023-01-20T07:55:37.952Z,23.37
2023-01-20T07:58:07.278Z,22.20
2023-01-20T08:00:36.543Z,21.87
2023-01-20T08:03:05.951Z,21.67
2023-01-20T08:05:35.238Z,23.17
2023-01-20T08:08:04.588Z,23.27
2023-01-20T08:10:34.280Z,21.53
2023-01-20T08:13:05.118Z,22.63
2023-01-20T08:15:34.579Z,21.70
2023-01-20T08:18:03.961Z,21.73
2023-01-20T08:20:33.314Z,21.70
2023-01-20T08:23:03.071Z,21.00
2023-01-20T08:25:32.463Z,21.40
2023-01-20T08:28:01.675Z,22.87
2023-01-20T08:30:32.527Z,23.60
2023-01-20T08:33:01.862Z,22.77
2023-01-20T08:35:31.372Z,20.73
2023-01-20T08:38:00.923Z,23.00
2023-01-20T08:40:30.203Z,21.77
2023-01-20T08:43:02.558Z,21.53
2023-01-20T08:45:33.948Z,19.73
2023-01-20T08:48:03.311Z,20.07
2023-01-20T08:50:32.578Z,19.93
2023-01-20T08:53:01.914Z,20.60
2023-01-20T08:55:32.591Z,18.77
2023-01-20T08:58:03.175Z,20.93
2023-01-20T09:00:34.053Z,19.17
2023-01-20T09:03:03.550Z,32.03
2023-01-20T09:05:32.763Z,18.67
2023-01-20T09:08:01.989Z,18.33
2023-01-20T09:10:33.573Z,17.30
2023-01-20T09:13:03.246Z,17.50
2023-01-20T09:15:34.008Z,15.47
2023-01-20T09:18:03.375Z,15.97
2023-01-20T09:20:32.693Z,16.57
2023-01-20T09:23:03.767Z,15.40
2023-01-20T09:25:33.094Z,15.87
2023-01-20T09:28:02.874Z,16.50
2023-01-20T09:30:34.584Z,16.60
2023-01-20T09:33:04.252Z,16.73
2023-01-20T09:35:33.608Z,17.60
2023-01-20T09:38:20.064Z,16.47
2023-01-20T09:41:17.632Z,15.43
2023-01-20T09:43:55.767Z,16.33
2023-01-20T09:46:43.002Z,16.30
2023-01-20T09:49:42.284Z,17.93
2023-01-20T09:52:34.313Z,18.10
2023-01-20T09:55:10.310Z,17.17
2023-01-20T09:57:44.178Z,16.67
2023-01-20T10:00:18.307Z,17.07
2023-01-20T10:02:57.357Z,16.63
2023-01-20T10:05:33.308Z,21.37
2023-01-20T10:08:08.518Z,16.37
2023-01-20T10:10:44.863Z,18.40
2023-01-20T10:13:18.508Z,18.40
2023-01-20T10:15:51.284Z,18.87
2023-01-20T10:18:27.676Z,17.70
2023-01-20T10:21:01.253Z,19.73
2023-01-20T10:23:39.652Z,18.73
2023-01-20T10:26:15.309Z,18.17
2023-01-20T10:28:58.028Z,17.83
2023-01-20T10:31:29.588Z,19.33
2023-01-20T10:34:09.190Z,17.87
2023-01-20T10:36:40.580Z,17.97
2023-01-20T10:39:26.783Z,17.40
2023-01-20T10:42:04.655Z,17.13
2023-01-20T10:44:36.934Z,20.23
2023-01-20T10:47:19.212Z,19.47
2023-01-20T10:50:21.182Z,16.90
2023-01-20T10:53:08.656Z,17.00
2023-01-20T10:55:49.337Z,18.77
2023-01-20T10:58:24.358Z,17.03
2023-01-20T11:00:54.330Z,16.23
2023-01-20T11:03:25.275Z,16.27
2023-01-20T11:05:54.994Z,15.67
2023-01-20T11:08:28.231Z,16.17
2023-01-20T11:11:01.078Z,17.10
2023-01-20T11:13:30.577Z,17.57
2023-01-20T11:16:05.550Z,15.47
2023-01-20T11:18:35.056Z,15.33
2023-01-20T11:21:07.888Z,16.40
2023-01-20T11:23:42.705Z,16.83
2023-01-20T11:26:22.349Z,16.10
2023-01-20T11:28:57.828Z,15.33
2023-01-20T11:31:39.065Z,15.27
2023-01-20T11:34:23.568Z,14.47
2023-01-20T11:37:13.804Z,15.17
2023-01-20T11:39:59.317Z,15.53
2023-01-20T11:42:31.156Z,17.83
2023-01-20T11:45:21.370Z,17.87
2023-01-20T11:48:05.665Z,17.93
2023-01-20T11:50:40.144Z,15.07
2023-01-20T11:53:20.759Z,16.40
2023-01-20T11:55:54.346Z,16.10
2023-01-20T11:58:25.792Z,16.93
2023-01-20T12:01:02.459Z,17.10
2023-01-20T12:04:08.681Z,16.63
2023-01-20T12:06:45.458Z,17.70
2023-01-20T12:09:18.702Z,16.43
2023-01-20T12:11:57.173Z,17.43
2023-01-20T12:14:31.508Z,17.03
2023-01-20T12:17:14.646Z,17.90
2023-01-20T12:20:02.840Z,17.20
2023-01-20T12:22:38.729Z,18.63
2023-01-20T12:25:18.407Z,20.33
2023-01-20T12:27:53.947Z,17.83
2023-01-20T12:30:49.244Z,21.70
2023-01-20T12:33:22.394Z,20.13
2023-01-20T12:36:25.265Z,20.93
2023-01-20T12:39:24.164Z,19.37
2023-01-20T12:42:17.394Z,21.63
2023-01-20T12:44:52.201Z,19.47
2023-01-20T12:47:35.769Z,21.17
2023-01-20T12:50:25.059Z,18.70
2023-01-20T12:53:11.106Z,16.30
2023-01-20T12:55:50.403Z,16.53
2023-01-20T12:58:29.630Z,17.50
2023-01-20T13:01:30.169Z,15.83
2023-01-20T13:04:19.601Z,14.53
2023-01-20T13:07:06.962Z,13.60
2023-01-20T13:09:52.689Z,13.70
2023-01-20T13:12:40.011Z,13.23
2023-01-20T13:15:24.487Z,14.07
2023-01-20T13:18:19.036Z,13.10
2023-01-20T13:20:48.519Z,12.60
2023-01-20T13:23:23.376Z,11.30
2023-01-20T13:25:54.425Z,10.77
2023-01-20T13:28:26.371Z,13.23
2023-01-20T13:30:57.759Z,10.80
2023-01-20T13:33:37.821Z,11.07
2023-01-20T13:36:18.970Z,10.00
2023-01-20T13:38:49.797Z,16.03
2023-01-20T13:41:50.065Z,11.77
2023-01-20T13:44:36.560Z,11.73
2023-01-20T13:47:07.650Z,13.23
2023-01-20T13:49:51.173Z,12.10
2023-01-20T13:52:53.814Z,13.20
2023-01-20T13:55:30.745Z,11.60
2023-01-20T13:58:00.403Z,11.70
2023-01-20T14:00:30.213Z,11.37
2023-01-20T14:02:59.675Z,11.13
2023-01-20T14:05:33.534Z,11.97
2023-01-20T14:08:03.040Z,11.17
2023-01-20T14:10:32.591Z,12.10
2023-01-20T14:13:02.022Z,10.97
2023-01-20T14:15:36.762Z,11.23
2023-01-20T14:18:13.298Z,11.63
2023-01-20T14:20:46.722Z,11.73
2023-01-20T14:23:30.645Z,13.27
2023-01-20T14:26:02.160Z,12.17
2023-01-20T14:28:32.209Z,11.27
2023-01-20T14:31:23.727Z,11.80
2023-01-20T14:33:58.559Z,12.10
2023-01-20T14:36:33.518Z,12.93
2023-01-20T14:39:04.554Z,12.57
2023-01-20T14:41:37.004Z,14.30
2023-01-20T14:44:21.255Z,12.83
2023-01-20T14:46:52.622Z,13.37
2023-01-20T14:49:24.633Z,13.67
2023-01-20T14:51:56.344Z,13.97
2023-01-20T14:54:40.825Z,14.03
2023-01-20T14:57:31.903Z,14.30
2023-01-20T15:00:14.092Z,13.93
2023-01-20T15:02:47.046Z,14.60
2023-01-20T15:05:30.103Z,16.10
2023-01-20T15:08:25.185Z,14.43
2023-01-20T15:11:21.558Z,14.90
2023-01-20T15:14:10.759Z,15.03
2023-01-20T15:16:49.684Z,15.87
2023-01-20T15:19:35.880Z,16.63
2023-01-20T15:22:23.891Z,16.47
2023-01-20T15:24:55.388Z,15.60
2023-01-20T15:27:34.793Z,15.57
2023-01-20T15:30:17.439Z,14.97
2023-01-20T15:32:48.248Z,13.50
2023-01-20T15:35:20.259Z,14.93
2023-01-20T15:37:50.457Z,14.17
2023-01-20T15:40:23.552Z,16.90
2023-01-20T15:42:53.908Z,16.87
2023-01-20T15:45:25.809Z,16.17
2023-01-20T15:47:55.303Z,16.83
2023-01-20T15:50:27.021Z,15.47
2023-01-20T15:52:56.520Z,14.90
2023-01-20T15:55:27.413Z,13.87
2023-01-20T15:57:56.763Z,16.13
2023-01-20T16:00:28.956Z,14.23
2023-01-20T16:02:58.737Z,14.73
2023-01-20T16:05:28.426Z,13.93
2023-01-20T16:07:58.687Z,13.10
2023-01-20T16:10:29.734Z,11.33
2023-01-20T16:12:59.209Z,12.07
2023-01-20T16:15:29.149Z,10.47
2023-01-20T16:17:58.658Z,13.33
2023-01-20T16:20:28.254Z,13.63
2023-01-20T16:22:58.153Z,12.77
2023-01-20T16:25:29.438Z,11.87
2023-01-20T16:27:59.692Z,10.83
2023-01-20T16:30:29.571Z,10.00
2023-01-20T16:32:58.983Z,8.30
2023-01-20T16:35:29.359Z,10.07
2023-01-20T16:37:58.828Z,11.47
2023-01-20T16:40:31.371Z,11.53
2023-01-20T16:43:00.988Z,13.47
2023-01-20T16:45:31.824Z,14.53
2023-01-20T16:48:01.325Z,15.37
2023-01-20T16:50:30.972Z,16.10
2023-01-20T16:53:00.254Z,13.87
2023-01-20T16:55:31.484Z,15.87
2023-01-20T16:58:01.579Z,15.93
2023-01-20T17:00:31.288Z,17.20
2023-01-20T17:03:02.831Z,17.50
2023-01-20T17:05:33.650Z,17.00
2023-01-20T17:08:03.840Z,20.90
2023-01-20T17:10:35.251Z,15.20
2023-01-20T17:13:05.209Z,13.20
2023-01-20T17:15:35.404Z,14.97
2023-01-20T17:18:05.400Z,14.97
2023-01-20T17:20:35.075Z,15.10
2023-01-20T17:23:05.379Z,14.00
2023-01-20T17:25:36.940Z,15.00
2023-01-20T17:28:07.611Z,14.33
2023-01-20T17:30:39.815Z,14.03
2023-01-20T17:33:10.116Z,14.00
2023-01-20T17:35:40.306Z,13.53
2023-01-20T17:38:10.591Z,13.27
2023-01-20T17:40:43.972Z,12.63
2023-01-20T17:43:17.518Z,11.83
2023-01-20T17:45:48.508Z,13.27
2023-01-20T17:48:20.078Z,11.00
2023-01-20T17:51:02.113Z,13.10
2023-01-20T17:53:35.294Z,12.37
2023-01-20T17:56:13.483Z,11.70
2023-01-20T17:58:46.167Z,12.83
2023-01-20T18:01:19.607Z,10.60
2023-01-20T18:03:52.047Z,15.20
2023-01-20T18:06:24.818Z,15.03
2023-01-20T18:09:05.989Z,14.80
2023-01-20T18:11:39.138Z,11.70
2023-01-20T18:14:12.379Z,10.07
2023-01-20T18:16:55.423Z,11.53
2023-01-20T18:19:30.984Z,11.00
2023-01-20T18:22:07.692Z,12.17
2023-01-20T18:24:39.189Z,10.00
2023-01-20T18:27:12.240Z,11.60
2023-01-20T18:29:44.842Z,12.33
2023-01-20T18:32:15.487Z,12.70
2023-01-20T18:34:55.018Z,11.87
2023-01-20T18:37:26.372Z,10.67
2023-01-20T18:39:56.676Z,11.40
2023-01-20T18:42:29.837Z,11.13
2023-01-20T18:45:01.443Z,11.40
2023-01-20T18:47:34.059Z,11.80
2023-01-20T18:50:05.807Z,11.27
2023-01-20T18:52:37.137Z,8.17
2023-01-20T18:55:09.057Z,11.10
2023-01-20T18:57:43.590Z,9.67
2023-01-20T19:00:16.303Z,10.50
2023-01-20T19:02:51.609Z,10.23
2023-01-20T19:05:22.376Z,11.10
2023-01-20T19:07:57.403Z,8.80
2023-01-20T19:10:30.794Z,9.20
2023-01-20T19:13:04.867Z,9.77
2023-01-20T19:15:36.772Z,9.03
2023-01-20T19:18:08.242Z,9.43
2023-01-20T19:20:55.600Z,10.20
2023-01-20T19:23:27.264Z,10.07
2023-01-20T19:26:09.790Z,10.07
2023-01-20T19:28:44.823Z,8.00
2023-01-20T19:31:22.876Z,9.33
2023-01-20T19:33:56.308Z,7.83
2023-01-20T19:36:29.930Z,7.40
2023-01-20T19:39:02.571Z,8.50
2023-01-20T19:41:36.665Z,8.77
2023-01-20T19:44:14.436Z,8.70
2023-01-20T19:46:47.846Z,8.77
2023-01-20T19:49:19.351Z,9.00
2023-01-20T19:51:54.662Z,9.23
2023-01-20T19:54:29.462Z,9.47
2023-01-20T19:57:00.561Z,8.73
2023-01-20T19:59:34.285Z,8.50
2023-01-20T20:02:06.681Z,9.37
2023-01-20T20:04:39.145Z,9.97
2023-01-20T20:07:11.939Z,9.40
2023-01-20T20:09:44.781Z,9.37
2023-01-20T20:12:17.278Z,9.30
2023-01-20T20:14:51.133Z,8.17
2023-01-20T20:17:27.005Z,8.27
2023-01-20T20:19:59.363Z,7.90
2023-01-20T20:22:33.862Z,9.10
2023-01-20T20:25:06.144Z,8.40
2023-01-20T20:27:37.525Z,8.27
2023-01-20T20:30:15.117Z,8.93
2023-01-20T20:32:46.872Z,8.03
2023-01-20T20:35:18.875Z,8.27
2023-01-20T20:37:51.053Z,8.67
2023-01-20T20:40:26.119Z,8.83
2023-01-20T20:43:00.078Z,9.10
2023-01-20T20:45:34.582Z,7.80
2023-01-20T20:48:05.939Z,6.77
2023-01-20T20:50:37.451Z,8.80
2023-01-20T20:53:08.630Z,8.33
2023-01-20T20:55:44.665Z,7.90
2023-01-20T20:58:16.570Z,7.10
2023-01-20T21:00:54.091Z,7.00
2023-01-20T21:03:25.443Z,8.17
2023-01-20T21:05:57.282Z,8.20
2023-01-20T21:08:29.493Z,8.53
2023-01-20T21:11:04.361Z,8.13
2023-01-20T21:13:36.186Z,7.27
2023-01-20T21:16:12.047Z,7.80
2023-01-20T21:18:43.624Z,7.00
2023-01-20T21:21:17.515Z,6.87
2023-01-20T21:23:53.758Z,8.27
2023-01-20T21:26:29.817Z,6.67
2023-01-20T21:29:03.988Z,8.70
2023-01-20T21:31:39.506Z,7.20
2023-01-20T21:34:14.786Z,6.40
2023-01-20T21:36:45.782Z,5.17
2023-01-20T21:39:18.010Z,6.87
2023-01-20T21:41:48.452Z,6.87
2023-01-20T21:44:29.606Z,6.27
2023-01-20T21:47:03.291Z,8.63
2023-01-20T21:49:50.716Z,7.20
2023-01-20T21:52:39.316Z,6.93
2023-01-20T21:55:11.535Z,6.10
2023-01-20T21:57:42.053Z,9.03
2023-01-20T22:00:13.452Z,6.20
2023-01-20T22:02:46.059Z,7.60
2023-01-20T22:05:16.014Z,8.67
2023-01-20T22:07:48.106Z,7.27
2023-01-20T22:10:18.645Z,8.00
2023-01-20T22:12:48.383Z,7.77
2023-01-20T22:15:18.123Z,7.03
2023-01-20T22:17:49.240Z,7.03
2023-01-20T22:20:20.453Z,7.60
2023-01-20T22:22:50.234Z,7.00
2023-01-20T22:25:19.700Z,6.23
2023-01-20T22:27:50.185Z,8.20
2023-01-20T22:30:19.950Z,7.00
2023-01-20T22:32:50.759Z,7.53
2023-01-20T22:35:20.524Z,6.80
2023-01-20T22:37:50.296Z,6.37
2023-01-20T22:40:19.812Z,6.20
2023-01-20T22:42:49.197Z,6.17
2023-01-20T22:45:18.831Z,7.27
2023-01-20T22:47:49.874Z,7.73
2023-01-20T22:50:19.670Z,6.70
2023-01-20T22:52:49.384Z,7.37
2023-01-20T22:55:18.815Z,7.43
2023-01-20T22:57:48.429Z,7.77
2023-01-20T23:00:19.161Z,5.93
2023-01-20T23:02:50.276Z,6.83
2023-01-20T23:05:19.714Z,6.73
2023-01-20T23:07:49.071Z,7.60
2023-01-20T23:10:32.815Z,8.47
2023-01-20T23:13:02.536Z,8.53
2023-01-20T23:15:32.716Z,8.83
2023-01-20T23:18:03.954Z,8.20
2023-01-20T23:20:33.490Z,8.33
2023-01-20T23:23:02.932Z,6.87
2023-01-20T23:25:32.405Z,9.53
2023-01-20T23:28:02.042Z,7.87
2023-01-20T23:30:31.809Z,9.70
2023-01-20T23:33:03.250Z,10.37
2023-01-20T23:35:32.886Z,9.43
2023-01-20T23:38:02.535Z,8.43
2023-01-20T23:40:32.170Z,9.90
2023-01-20T23:43:01.849Z,9.33
2023-01-20T23:45:31.411Z,10.07
2023-01-20T23:48:00.929Z,9.80
2023-01-20T23:50:32.109Z,10.30
2023-01-20T23:53:01.592Z,11.27
2023-01-20T23:55:31.318Z,10.53
2023-01-20T23:58:01.223Z,11.90
